Terminal Aerodrome Forecast
Issued by NWS

Home | Current Version | Previous Version | Graphics & Text | Print | Product List | Glossary On
Versions: 1 2 3 4 5 6 7 8 9 10 11 12 13 14 15 16 17 18 19 20
000
FTUS41 KCLE 191700
TAFFDY
TAF
KFDY 191740Z 1918/2018 08012G20KT P6SM VCSH BKN040 OVC070
     FM192000 12015G25KT 3SM -SHRA BR OVC025
     FM200000 12020G34KT 2SM -SHRA BR SCT006 OVC012
     FM200400 19018G26KT P6SM SCT012 OVC035
     FM201600 23020G30KT P6SM OVC035=

USA.gov is the U.S. government's official web portal to all federal, state and local government web resources and services.